createdAt,value
2023-04-04T00:00:40.401Z,57.71
2023-04-04T00:01:40.025Z,57.09
2023-04-04T00:02:40.048Z,57.12
2023-04-04T00:03:41.165Z,56.81
2023-04-04T00:04:40.045Z,56.81
2023-04-04T00:05:39.984Z,57.22
2023-04-04T00:06:40.551Z,56.81
2023-04-04T00:07:39.962Z,57.01
2023-04-04T00:08:39.961Z,57.64
2023-04-04T00:09:39.963Z,57.40
2023-04-04T00:10:40.148Z,57.43
2023-04-04T00:11:40.548Z,57.32
2023-04-04T00:12:39.933Z,57.12
2023-04-04T00:13:39.940Z,57.30
2023-04-04T00:14:39.924Z,56.57
2023-04-04T00:15:39.902Z,55.87
2023-04-04T00:16:39.899Z,55.98
2023-04-04T00:17:39.914Z,55.77
2023-04-04T00:18:39.889Z,55.77
2023-04-04T00:19:39.903Z,55.87
2023-04-04T00:20:40.111Z,55.87
2023-04-04T00:21:39.844Z,56.08
2023-04-04T00:23:29.314Z,55.66
2023-04-04T00:24:29.321Z,55.87
2023-04-04T00:25:29.321Z,55.66
2023-04-04T00:26:29.310Z,57.01
2023-04-04T00:27:29.300Z,57.12
2023-04-04T00:28:29.288Z,56.70
2023-04-04T00:29:29.271Z,56.70
2023-04-04T00:30:29.264Z,57.43
2023-04-04T00:31:29.271Z,56.60
2023-04-04T00:32:29.350Z,55.56
2023-04-04T00:33:29.265Z,55.14
2023-04-04T00:34:29.242Z,55.66
2023-04-04T00:35:29.244Z,55.77
2023-04-04T00:36:29.220Z,55.66
2023-04-04T00:37:29.209Z,55.35
2023-04-04T00:38:29.206Z,55.66
2023-04-04T00:39:29.205Z,55.56
2023-04-04T00:40:29.197Z,56.39
2023-04-04T00:41:29.180Z,55.77
2023-04-04T00:42:29.187Z,55.90
2023-04-04T00:43:29.173Z,57.01
2023-04-04T00:44:29.154Z,56.18
2023-04-04T00:45:29.176Z,55.77
2023-04-04T00:46:29.161Z,56.08
2023-04-04T00:47:29.176Z,56.60
2023-04-04T00:48:29.152Z,55.66
2023-04-04T00:49:29.148Z,55.87
2023-04-04T00:50:29.126Z,56.18
2023-04-04T00:51:29.108Z,56.49
2023-04-04T00:52:30.256Z,57.43
2023-04-04T00:53:30.189Z,57.01
2023-04-04T00:54:30.187Z,56.60
2023-04-04T00:55:30.168Z,57.22
2023-04-04T00:56:30.176Z,57.22
2023-04-04T00:57:30.156Z,56.60
2023-04-04T00:58:30.162Z,57.35
2023-04-04T00:59:30.171Z,56.91
2023-04-04T01:00:30.142Z,57.95
2023-04-04T01:01:30.173Z,57.01
2023-04-04T01:02:30.153Z,57.32
2023-04-04T01:03:30.121Z,57.85
2023-04-04T01:04:30.137Z,57.01
2023-04-04T01:05:30.094Z,57.32
2023-04-04T01:06:30.103Z,57.95
2023-04-04T01:07:30.089Z,58.16
2023-04-04T01:08:30.072Z,58.47
2023-04-04T01:09:30.074Z,57.12
2023-04-04T01:10:30.054Z,57.12
2023-04-04T01:11:30.065Z,57.43
2023-04-04T01:12:30.046Z,57.22
2023-04-04T01:13:30.273Z,58.47
2023-04-04T01:14:30.033Z,57.64
2023-04-04T01:15:30.013Z,57.64
2023-04-04T01:16:30.085Z,57.95
2023-04-04T01:17:30.056Z,57.98
2023-04-04T01:18:30.011Z,57.64
2023-04-04T01:19:29.982Z,57.85
2023-04-04T01:20:29.975Z,58.18
2023-04-04T01:21:29.962Z,58.06
2023-04-04T01:22:29.980Z,57.64
2023-04-04T01:23:29.977Z,58.60
2023-04-04T01:24:29.958Z,58.08
2023-04-04T01:25:29.934Z,58.39
2023-04-04T01:26:29.954Z,58.68
2023-04-04T01:27:29.923Z,58.58
2023-04-04T01:28:29.905Z,58.18
2023-04-04T01:29:29.926Z,58.70
2023-04-04T01:30:29.908Z,58.81
2023-04-04T01:31:29.945Z,59.02
2023-04-04T01:32:29.948Z,59.23
2023-04-04T01:33:29.877Z,59.54
2023-04-04T01:34:29.858Z,59.23
2023-04-04T01:35:29.867Z,59.30
2023-04-04T01:36:30.773Z,59.75
2023-04-04T01:37:29.844Z,60.27
2023-04-04T01:38:29.851Z,59.75
2023-04-04T01:39:29.865Z,59.54
2023-04-04T01:40:29.854Z,59.33
2023-04-04T01:41:29.830Z,59.95
2023-04-04T01:42:29.801Z,59.95
2023-04-04T01:43:29.822Z,59.85
2023-04-04T01:44:29.806Z,59.95
2023-04-04T01:45:29.786Z,59.33
2023-04-04T01:46:29.837Z,60.06
2023-04-04T01:47:29.816Z,59.64
2023-04-04T01:48:29.763Z,60.06
2023-04-04T01:49:29.747Z,60.06
2023-04-04T01:50:29.755Z,59.85
2023-04-04T01:51:29.723Z,59.99
2023-04-04T01:52:29.734Z,59.77
2023-04-04T01:53:29.737Z,59.88
2023-04-04T01:54:29.727Z,60.40
2023-04-04T01:55:29.725Z,61.33
2023-04-04T01:56:29.706Z,60.19
2023-04-04T01:57:29.711Z,60.50
2023-04-04T01:58:29.683Z,60.50
2023-04-04T01:59:29.839Z,60.92
2023-04-04T02:00:29.682Z,60.09
2023-04-04T02:01:29.708Z,59.56
2023-04-04T02:02:29.789Z,59.56
2023-04-04T02:03:29.640Z,60.40
2023-04-04T02:04:30.308Z,60.09
2023-04-04T02:05:29.619Z,59.56
2023-04-04T02:06:29.640Z,59.25
2023-04-04T02:07:29.616Z,59.77
2023-04-04T02:08:29.597Z,59.36
2023-04-04T02:09:29.598Z,59.59
2023-04-04T02:10:30.278Z,59.56
2023-04-04T02:11:29.583Z,59.80
2023-04-04T02:12:29.573Z,59.80
2023-04-04T02:13:29.555Z,59.80
2023-04-04T02:14:29.555Z,59.91
2023-04-04T02:15:29.535Z,60.74
2023-04-04T02:16:29.547Z,60.95
2023-04-04T02:17:29.524Z,59.59
2023-04-04T02:18:29.534Z,59.70
2023-04-04T02:19:29.513Z,59.80
2023-04-04T02:20:29.512Z,59.70
2023-04-04T02:21:29.504Z,59.80
2023-04-04T02:22:29.475Z,59.70
2023-04-04T02:23:29.488Z,60.95
2023-04-04T02:24:29.488Z,61.26
2023-04-04T02:25:29.468Z,60.97
2023-04-04T02:26:29.469Z,60.04
2023-04-04T02:27:30.273Z,61.50
2023-04-04T02:28:29.459Z,60.77
2023-04-04T02:29:29.427Z,59.72
2023-04-04T02:30:29.428Z,60.25
2023-04-04T02:31:30.345Z,60.97
2023-04-04T02:32:29.434Z,61.00
2023-04-04T02:33:29.393Z,61.21
2023-04-04T02:34:29.405Z,61.21
2023-04-04T02:35:29.385Z,61.00
2023-04-04T02:36:29.390Z,61.63
2023-04-04T02:37:29.370Z,61.66
2023-04-04T02:38:29.372Z,61.83
2023-04-04T02:39:29.352Z,61.63
2023-04-04T02:40:29.337Z,61.35
2023-04-04T02:41:29.342Z,62.26
2023-04-04T02:42:29.345Z,61.97
2023-04-04T02:43:29.325Z,61.97
2023-04-04T02:44:29.309Z,62.49
2023-04-04T02:45:29.314Z,62.49
2023-04-04T02:46:29.355Z,62.49
2023-04-04T02:47:29.316Z,62.62
2023-04-04T02:48:29.283Z,61.87
2023-04-04T02:49:29.301Z,61.90
2023-04-04T02:50:29.285Z,62.62
2023-04-04T02:51:29.283Z,61.87
2023-04-04T02:52:29.262Z,60.20
2023-04-04T02:53:29.256Z,61.90
2023-04-04T02:54:29.240Z,61.27
2023-04-04T02:55:29.245Z,60.96
2023-04-04T02:56:29.258Z,61.27
2023-04-04T02:57:29.219Z,61.16
2023-04-04T02:58:29.267Z,60.67
2023-04-04T02:59:29.331Z,61.47
2023-04-04T03:00:29.196Z,61.37
2023-04-04T03:01:29.293Z,60.85
2023-04-04T03:02:29.369Z,61.47
2023-04-04T03:03:29.387Z,61.82
2023-04-04T03:04:29.162Z,61.79
2023-04-04T03:05:29.163Z,61.71
2023-04-04T03:06:29.142Z,61.71
2023-04-04T03:07:29.147Z,61.30
2023-04-04T03:08:29.133Z,61.19
2023-04-04T03:09:29.137Z,60.98
2023-04-04T03:10:29.117Z,61.51
2023-04-04T03:11:29.142Z,61.08
2023-04-04T03:12:29.102Z,61.82
2023-04-04T03:13:29.089Z,61.82
2023-04-04T03:14:29.100Z,62.16
2023-04-04T03:15:29.090Z,61.74
2023-04-04T03:16:29.136Z,61.92
2023-04-04T03:17:29.088Z,62.37
2023-04-04T03:18:29.124Z,62.16
2023-04-04T03:19:29.070Z,62.26
2023-04-04T03:20:29.024Z,62.16
2023-04-04T03:21:29.040Z,62.37
2023-04-04T03:22:29.028Z,62.92
2023-04-04T03:23:29.018Z,62.92
2023-04-04T03:24:30.034Z,62.92
2023-04-04T03:25:29.011Z,63.83
2023-04-04T03:26:29.008Z,63.65
2023-04-04T03:27:28.974Z,64.49
2023-04-04T03:28:28.985Z,64.31
2023-04-04T03:29:28.966Z,64.73
2023-04-04T03:30:28.955Z,64.51
2023-04-04T03:31:28.964Z,66.19
2023-04-04T03:32:29.048Z,66.50
2023-04-04T03:33:28.958Z,66.96
2023-04-04T03:34:28.946Z,67.27
2023-04-04T03:35:28.921Z,67.58
2023-04-04T03:36:28.911Z,67.79
2023-04-04T03:37:28.899Z,67.90
2023-04-04T03:38:28.881Z,67.82
2023-04-04T03:39:28.903Z,68.41
2023-04-04T03:40:28.870Z,68.45
2023-04-04T03:41:28.880Z,68.87
2023-04-04T03:42:28.860Z,68.66
2023-04-04T03:43:28.853Z,68.76
2023-04-04T03:44:28.832Z,69.49
2023-04-04T03:45:28.838Z,69.39
2023-04-04T03:46:28.938Z,69.70
2023-04-04T03:47:28.856Z,70.43
2023-04-04T03:48:28.823Z,70.02
2023-04-04T03:49:28.802Z,70.15
2023-04-04T03:50:28.824Z,70.68
2023-04-04T03:51:28.814Z,70.47
2023-04-04T03:52:29.732Z,71.10
2023-04-04T03:53:28.831Z,71.83
2023-04-04T03:54:28.817Z,71.62
2023-04-04T03:55:28.765Z,71.97
2023-04-04T03:56:28.773Z,72.60
2023-04-04T03:57:28.756Z,72.70
2023-04-04T03:58:28.753Z,72.49
2023-04-04T03:59:28.821Z,72.81
2023-04-04T04:00:28.730Z,73.02
2023-04-04T04:01:28.725Z,72.81
2023-04-04T04:02:28.752Z,73.22
2023-04-04T04:03:28.757Z,73.05
2023-04-04T04:04:28.797Z,73.36
2023-04-04T04:05:28.669Z,73.36
2023-04-04T04:06:28.672Z,73.47
2023-04-04T04:07:28.665Z,73.47
2023-04-04T04:08:28.662Z,73.36
2023-04-04T04:09:28.643Z,73.68
2023-04-04T04:10:28.644Z,73.79
2023-04-04T04:11:28.652Z,73.99
2023-04-04T04:12:29.206Z,74.58
2023-04-04T04:13:28.627Z,74.48
2023-04-04T04:14:28.610Z,75.11
2023-04-04T04:15:28.601Z,74.83
2023-04-04T04:16:28.610Z,74.62
2023-04-04T04:17:28.855Z,74.48
2023-04-04T04:18:28.596Z,74.93
2023-04-04T04:19:28.571Z,74.52
2023-04-04T04:20:28.573Z,75.04
2023-04-04T04:21:28.588Z,74.93
2023-04-04T04:22:28.567Z,75.04
2023-04-04T04:23:28.563Z,75.67
2023-04-04T04:24:28.551Z,75.35
2023-04-04T04:25:28.532Z,75.46
2023-04-04T04:26:28.524Z,75.15
2023-04-04T04:27:28.517Z,75.15
2023-04-04T04:28:34.006Z,75.15
2023-04-04T04:29:30.224Z,75.35
2023-04-04T04:30:28.493Z,75.25
2023-04-04T04:31:28.520Z,75.25
2023-04-04T04:32:28.532Z,75.29
2023-04-04T04:33:28.483Z,75.29
2023-04-04T04:34:28.497Z,76.02
2023-04-04T04:35:29.323Z,76.02
2023-04-04T04:36:29.305Z,76.02
2023-04-04T04:37:28.432Z,75.70
2023-04-04T04:38:28.434Z,76.54
2023-04-04T04:39:28.454Z,76.02
2023-04-04T04:40:28.475Z,75.81
2023-04-04T04:41:28.434Z,75.70
2023-04-04T04:42:28.412Z,76.43
2023-04-04T04:43:28.410Z,77.38
2023-04-04T04:44:28.398Z,77.24
2023-04-04T04:45:28.392Z,77.17
2023-04-04T04:46:28.399Z,76.30
2023-04-04T04:47:28.433Z,77.14
2023-04-04T04:48:28.379Z,76.72
2023-04-04T04:49:28.401Z,76.82
2023-04-04T04:50:29.381Z,76.40
2023-04-04T04:51:28.342Z,75.78
2023-04-04T04:52:28.359Z,75.21
2023-04-04T04:53:28.330Z,76.06
2023-04-04T04:54:28.332Z,75.98
2023-04-04T04:55:28.314Z,76.09
2023-04-04T04:56:28.330Z,75.88
2023-04-04T04:57:28.314Z,76.51
2023-04-04T04:58:28.837Z,76.40
2023-04-04T04:59:29.323Z,76.40
2023-04-04T05:00:28.288Z,76.72
2023-04-04T05:01:28.355Z,76.61
2023-04-04T05:02:28.467Z,76.61
2023-04-04T05:03:28.272Z,77.24
2023-04-04T05:04:29.218Z,76.93
2023-04-04T05:05:28.248Z,76.51
2023-04-04T05:06:28.323Z,76.47
2023-04-04T05:07:28.221Z,75.63
2023-04-04T05:08:28.233Z,76.61
2023-04-04T05:09:28.244Z,75.98
2023-04-04T05:10:28.217Z,76.06
2023-04-04T05:11:28.814Z,76.54
2023-04-04T05:12:28.200Z,76.02
2023-04-04T05:13:29.000Z,75.46
2023-04-04T05:14:28.804Z,74.69
2023-04-04T05:15:28.162Z,74.14
2023-04-04T05:16:28.212Z,73.30
2023-04-04T05:17:28.837Z,73.58
2023-04-04T05:18:28.143Z,72.71
2023-04-04T05:19:28.211Z,72.36
2023-04-04T05:20:28.119Z,72.23
2023-04-04T05:21:28.155Z,71.04
2023-04-04T05:22:28.152Z,69.42
2023-04-04T05:23:28.144Z,69.10
2023-04-04T05:24:28.102Z,67.93
2023-04-04T05:25:28.071Z,67.79
2023-04-04T05:26:28.109Z,66.93
2023-04-04T05:27:28.072Z,65.65
2023-04-04T05:28:28.832Z,64.48
2023-04-04T05:29:28.036Z,64.14
2023-04-04T05:30:28.075Z,63.20
2023-04-04T05:31:28.352Z,62.65
2023-04-04T05:32:28.051Z,61.90
2023-04-04T05:33:28.049Z,62.00
2023-04-04T05:34:28.011Z,61.48
2023-04-04T05:35:28.030Z,61.66
2023-04-04T05:36:28.066Z,61.45
2023-04-04T05:37:27.992Z,60.83
2023-04-04T05:38:27.996Z,60.83
2023-04-04T05:39:27.997Z,60.93
2023-04-04T05:40:28.747Z,61.32
2023-04-04T05:41:27.952Z,61.05
2023-04-04T05:42:27.946Z,59.27
2023-04-04T05:43:27.938Z,57.37
2023-04-04T05:44:27.959Z,58.15
2023-04-04T05:45:27.944Z,57.12
2023-04-04T05:46:28.049Z,56.18
2023-04-04T05:47:27.934Z,56.29
2023-04-04T05:48:27.906Z,55.30
2023-04-04T05:49:27.954Z,55.28
2023-04-04T05:50:27.885Z,53.96
2023-04-04T05:51:28.830Z,52.37
2023-04-04T05:52:27.894Z,51.42
2023-04-04T05:53:27.871Z,50.24
2023-04-04T05:54:27.852Z,49.93
2023-04-04T05:55:27.854Z,50.20
2023-04-04T05:56:27.829Z,49.90
2023-04-04T05:57:27.841Z,50.80
2023-04-04T05:58:27.816Z,50.28
2023-04-04T05:59:27.881Z,50.05
2023-04-04T06:00:28.825Z,50.13
2023-04-04T06:01:27.807Z,48.67
2023-04-04T06:02:27.861Z,49.16
2023-04-04T06:03:27.872Z,48.50
2023-04-04T06:04:27.794Z,46.91
2023-04-04T06:05:27.786Z,46.05
2023-04-04T06:06:27.775Z,45.10
2023-04-04T06:07:27.774Z,44.14
2023-04-04T06:08:27.766Z,44.12
2023-04-04T06:09:27.735Z,43.57
2023-04-04T06:10:27.742Z,42.41
2023-04-04T06:11:27.715Z,41.50
2023-04-04T06:12:28.247Z,41.63
2023-04-04T06:13:27.708Z,42.61
2023-04-04T06:14:27.697Z,44.29
2023-04-04T06:15:27.723Z,45.27
2023-04-04T06:16:27.747Z,45.29
2023-04-04T06:17:27.755Z,45.93
2023-04-04T06:18:27.668Z,47.56
2023-04-04T06:19:27.631Z,48.35
2023-04-04T06:20:27.638Z,49.96
2023-04-04T06:21:27.630Z,50.60
2023-04-04T06:22:28.251Z,52.39
2023-04-04T06:23:27.645Z,52.75
2023-04-04T06:24:27.629Z,54.16
2023-04-04T06:25:27.617Z,54.89
2023-04-04T06:26:27.608Z,55.43
2023-04-04T06:27:27.662Z,55.56
2023-04-04T06:28:27.675Z,56.08
2023-04-04T06:29:27.616Z,56.49
2023-04-04T06:30:27.625Z,55.77
2023-04-04T06:31:27.586Z,56.39
2023-04-04T06:32:27.556Z,55.41
2023-04-04T06:33:27.541Z,54.74
2023-04-04T06:34:27.547Z,53.67
2023-04-04T06:35:27.568Z,53.21
2023-04-04T06:36:28.368Z,52.78
2023-04-04T06:37:27.489Z,52.15
2023-04-04T06:38:27.492Z,52.55
2023-04-04T06:39:27.467Z,52.65
2023-04-04T06:40:27.480Z,51.95
2023-04-04T06:41:27.466Z,51.95
2023-04-04T06:42:27.471Z,52.23
2023-04-04T06:43:28.840Z,52.34
2023-04-04T06:44:27.526Z,51.90
2023-04-04T06:45:27.492Z,50.74
2023-04-04T06:46:27.467Z,51.05
2023-04-04T06:47:27.463Z,50.64
2023-04-04T06:48:27.845Z,50.84
2023-04-04T06:49:29.375Z,50.74
2023-04-04T06:50:27.416Z,50.62
2023-04-04T06:51:27.380Z,50.46
2023-04-04T06:52:27.392Z,49.85
2023-04-04T06:53:27.416Z,49.54
2023-04-04T06:54:27.394Z,48.67
2023-04-04T06:55:28.385Z,47.87
2023-04-04T06:56:27.364Z,49.05
2023-04-04T06:57:27.375Z,50.16
2023-04-04T06:58:27.358Z,49.46
2023-04-04T06:59:28.295Z,50.18
2023-04-04T07:00:27.375Z,49.66
2023-04-04T07:01:27.317Z,48.76
2023-04-04T07:02:27.330Z,50.10
2023-04-04T07:03:28.239Z,49.81
2023-04-04T07:04:27.292Z,49.90
2023-04-04T07:05:27.850Z,50.10
2023-04-04T07:06:27.276Z,48.88
2023-04-04T07:07:27.307Z,50.23
2023-04-04T07:08:28.751Z,50.23
2023-04-04T07:09:29.448Z,50.12
2023-04-04T07:10:28.246Z,49.71
2023-04-04T07:11:27.307Z,49.81
2023-04-04T07:12:27.253Z,50.02
2023-04-04T07:13:27.868Z,50.07
2023-04-04T07:14:28.210Z,50.29
2023-04-04T07:15:27.794Z,51.33
2023-04-04T07:16:27.250Z,51.82
2023-04-04T07:17:27.235Z,52.55
2023-04-04T07:18:27.250Z,51.49
2023-04-04T07:19:27.192Z,50.15
2023-04-04T07:20:27.850Z,50.79
2023-04-04T07:21:27.158Z,49.68
2023-04-04T07:22:27.234Z,50.32
2023-04-04T07:23:27.157Z,50.86
2023-04-04T07:24:29.787Z,51.07
2023-04-04T07:25:27.151Z,50.68
2023-04-04T07:26:27.161Z,51.14
2023-04-04T07:27:27.183Z,51.73
2023-04-04T07:28:27.216Z,52.72
2023-04-04T07:29:27.194Z,52.53
2023-04-04T07:30:27.171Z,53.28
2023-04-04T07:31:27.121Z,54.11
2023-04-04T07:32:27.075Z,53.69
2023-04-04T07:33:27.076Z,54.81
2023-04-04T07:34:27.109Z,54.47
2023-04-04T07:35:27.070Z,53.31
2023-04-04T07:36:29.785Z,53.20
2023-04-04T07:37:27.031Z,53.12
2023-04-04T07:38:27.032Z,53.38
2023-04-04T07:39:27.828Z,53.96
2023-04-04T07:40:27.040Z,55.66
2023-04-04T07:41:27.029Z,56.81
2023-04-04T07:42:27.032Z,57.53
2023-04-04T07:43:26.976Z,57.30
2023-04-04T07:44:26.982Z,58.03
2023-04-04T07:45:26.966Z,58.03
2023-04-04T07:46:26.996Z,57.51
2023-04-04T07:47:26.998Z,57.20
2023-04-04T07:48:26.985Z,56.88
2023-04-04T07:49:26.952Z,56.37
2023-04-04T07:50:27.935Z,56.78
2023-04-04T07:51:26.927Z,56.47
2023-04-04T07:52:26.897Z,55.85
2023-04-04T07:53:27.791Z,55.54
2023-04-04T07:54:26.889Z,55.66
2023-04-04T07:55:26.889Z,56.78
2023-04-04T07:56:27.840Z,56.34
2023-04-04T07:57:26.898Z,56.34
2023-04-04T07:58:26.889Z,56.24
2023-04-04T07:59:28.891Z,55.38
2023-04-04T08:00:26.864Z,55.79
2023-04-04T08:01:26.835Z,55.46
2023-04-04T08:02:26.896Z,55.35
2023-04-04T08:03:26.927Z,54.73
2023-04-04T08:04:26.880Z,54.32
2023-04-04T08:05:26.811Z,55.04
2023-04-04T08:06:26.807Z,53.49
2023-04-04T08:07:29.299Z,54.63
2023-04-04T08:08:27.768Z,54.50
2023-04-04T08:09:26.864Z,53.12
2023-04-04T08:10:26.767Z,53.12
2023-04-04T08:11:26.813Z,53.03
2023-04-04T08:12:26.752Z,53.12
2023-04-04T08:13:26.738Z,52.48
2023-04-04T08:14:26.744Z,51.86
2023-04-04T08:15:26.756Z,52.80
2023-04-04T08:16:26.769Z,52.36
2023-04-04T08:17:26.775Z,52.25
2023-04-04T08:18:27.380Z,52.36
2023-04-04T08:19:26.727Z,51.32
2023-04-04T08:20:26.694Z,51.86
2023-04-04T08:21:26.689Z,52.59
2023-04-04T08:23:34.026Z,53.15
2023-04-04T08:24:34.036Z,53.46
2023-04-04T08:25:35.206Z,53.25
2023-04-04T08:26:35.876Z,53.36
2023-04-04T08:27:35.887Z,53.59
2023-04-04T08:28:35.145Z,54.42
2023-04-04T08:29:35.106Z,53.46
2023-04-04T08:30:35.086Z,53.64
2023-04-04T08:31:36.386Z,53.23
2023-04-04T08:32:35.256Z,51.78
2023-04-04T08:33:47.361Z,52.17
2023-04-04T08:34:37.021Z,52.04
2023-04-04T08:35:35.080Z,49.90
2023-04-04T08:36:35.054Z,49.90
2023-04-04T08:37:35.047Z,50.93
2023-04-04T08:38:35.006Z,51.26
2023-04-04T08:39:35.047Z,50.62
2023-04-04T08:40:35.076Z,50.43
2023-04-04T08:41:35.001Z,49.91
2023-04-04T08:42:34.979Z,50.33
2023-04-04T08:43:34.992Z,50.62
2023-04-04T08:44:35.829Z,50.51
2023-04-04T08:45:35.971Z,50.31
2023-04-04T08:46:35.210Z,50.43
2023-04-04T08:47:34.970Z,50.82
2023-04-04T08:48:34.961Z,50.10
2023-04-04T08:49:34.967Z,50.54
2023-04-04T08:50:34.944Z,50.25
2023-04-04T08:51:34.913Z,50.07
2023-04-04T08:52:34.930Z,50.77
2023-04-04T08:53:34.954Z,50.87
2023-04-04T08:54:34.890Z,50.67
2023-04-04T08:55:34.879Z,50.87
2023-04-04T08:56:34.873Z,51.73
2023-04-04T08:57:34.884Z,52.12
2023-04-04T08:58:34.862Z,50.87
2023-04-04T08:59:35.014Z,51.62
2023-04-04T09:00:34.875Z,51.91
2023-04-04T09:01:34.866Z,52.53
2023-04-04T09:02:35.431Z,52.22
2023-04-04T09:03:35.482Z,51.70
2023-04-04T09:04:34.792Z,51.81
2023-04-04T09:05:35.005Z,50.90
2023-04-04T09:06:34.806Z,52.14
2023-04-04T09:07:38.553Z,50.90
2023-04-04T09:08:34.804Z,50.77
2023-04-04T09:09:34.785Z,50.25
2023-04-04T09:10:34.744Z,50.77
2023-04-04T09:11:36.471Z,51.60
2023-04-04T09:12:34.731Z,49.94
2023-04-04T09:13:36.508Z,50.85
2023-04-04T09:14:34.717Z,51.08
2023-04-04T09:15:34.722Z,50.25
2023-04-04T09:16:35.460Z,51.08
2023-04-04T09:17:34.748Z,50.87
2023-04-04T09:18:34.687Z,50.77
2023-04-04T09:19:34.672Z,51.39
2023-04-04T09:20:34.667Z,50.35
2023-04-04T09:21:34.662Z,50.35
2023-04-04T09:22:34.819Z,50.87
2023-04-04T09:23:34.657Z,51.06
2023-04-04T09:24:34.638Z,50.62
2023-04-04T09:25:34.635Z,50.43
2023-04-04T09:27:40.904Z,49.69
2023-04-04T09:28:40.908Z,50.31
2023-04-04T09:29:40.898Z,50.31
2023-04-04T09:30:41.048Z,50.57
2023-04-04T09:31:42.017Z,49.41
2023-04-04T09:32:41.979Z,48.36
2023-04-04T09:33:41.948Z,48.33
2023-04-04T09:34:41.936Z,47.28
2023-04-04T09:35:42.012Z,47.51
2023-04-04T09:36:42.006Z,47.81
2023-04-04T09:37:42.835Z,47.59
2023-04-04T09:38:41.912Z,46.12
2023-04-04T09:39:41.912Z,47.05
2023-04-04T09:40:42.244Z,47.03
2023-04-04T09:41:41.897Z,46.82
2023-04-04T09:42:43.365Z,46.77
2023-04-04T09:43:41.902Z,48.02
2023-04-04T09:44:41.868Z,48.33
2023-04-04T09:45:41.888Z,47.92
2023-04-04T09:46:41.958Z,47.61
2023-04-04T09:47:43.367Z,48.15
2023-04-04T09:48:41.845Z,48.46
2023-04-04T09:49:41.818Z,49.57
2023-04-04T09:50:42.192Z,48.41
2023-04-04T09:51:41.841Z,48.13
2023-04-04T09:52:41.815Z,48.85
2023-04-04T09:53:41.831Z,48.41
2023-04-04T09:54:48.036Z,48.75
2023-04-04T09:55:43.769Z,48.56
2023-04-04T09:56:41.765Z,48.87
2023-04-04T09:57:42.760Z,48.33
2023-04-04T09:58:52.411Z,48.13
2023-04-04T09:59:43.801Z,48.33
2023-04-04T10:00:41.801Z,47.20
2023-04-04T10:01:41.766Z,48.33
2023-04-04T10:02:41.745Z,47.28
2023-04-04T10:03:41.748Z,46.86
2023-04-04T10:04:41.710Z,45.81
2023-04-04T10:05:42.360Z,46.84
2023-04-04T10:06:41.695Z,46.02
2023-04-04T10:07:41.690Z,46.51
2023-04-04T10:08:41.737Z,46.08
2023-04-04T10:09:41.663Z,45.36
2023-04-04T10:10:41.668Z,46.41
2023-04-04T10:11:41.674Z,45.79
2023-04-04T10:12:42.285Z,46.39
2023-04-04T10:13:43.340Z,46.08
2023-04-04T10:14:41.652Z,45.85
2023-04-04T10:15:41.686Z,44.95
2023-04-04T10:16:42.339Z,45.17
2023-04-04T10:17:41.693Z,45.92
2023-04-04T10:18:41.687Z,45.96
2023-04-04T10:19:41.569Z,46.50
2023-04-04T10:20:41.708Z,45.87
2023-04-04T10:21:41.571Z,46.39
2023-04-04T10:22:43.649Z,46.58
2023-04-04T10:23:41.585Z,47.53
2023-04-04T10:24:41.555Z,47.53
2023-04-04T10:25:41.539Z,46.62
2023-04-04T10:26:41.564Z,47.34
2023-04-04T10:27:41.514Z,47.03
2023-04-04T10:28:41.515Z,47.55
2023-04-04T10:29:41.504Z,47.55
2023-04-04T10:30:45.455Z,47.55
2023-04-04T10:31:42.517Z,47.47
2023-04-04T10:32:41.501Z,47.36
2023-04-04T10:33:41.484Z,47.47
2023-04-04T10:34:41.461Z,47.14
2023-04-04T10:35:41.491Z,47.63
2023-04-04T10:36:41.439Z,46.91
2023-04-04T10:37:41.438Z,47.53
2023-04-04T10:38:41.416Z,48.25
2023-04-04T10:39:41.454Z,47.94
2023-04-04T10:40:41.702Z,48.36
2023-04-04T10:41:41.408Z,46.62
2023-04-04T10:42:41.405Z,47.63
2023-04-04T10:43:41.375Z,47.32
2023-04-04T10:44:41.374Z,47.42
2023-04-04T10:45:41.568Z,46.58
2023-04-04T10:46:41.378Z,47.30
2023-04-04T10:47:41.371Z,47.09
2023-04-04T10:48:41.339Z,46.89
2023-04-04T10:49:41.336Z,46.77
2023-04-04T10:50:41.339Z,46.86
2023-04-04T10:51:53.001Z,46.77
2023-04-04T10:52:43.301Z,46.95
2023-04-04T10:53:41.303Z,45.63
2023-04-04T10:54:41.849Z,46.86
2023-04-04T10:55:41.595Z,45.73
2023-04-04T10:56:41.293Z,45.86
2023-04-04T10:57:41.288Z,46.99
2023-04-04T10:58:41.251Z,47.30
2023-04-04T10:59:41.257Z,47.17
2023-04-04T11:00:41.318Z,47.11
2023-04-04T11:01:41.265Z,48.77
2023-04-04T11:02:41.251Z,49.08
2023-04-04T11:03:41.289Z,49.60
2023-04-04T11:04:41.274Z,48.46
2023-04-04T11:05:41.497Z,48.90
2023-04-04T11:06:41.207Z,49.35
2023-04-04T11:07:41.220Z,49.56
2023-04-04T11:08:41.192Z,49.98
2023-04-04T11:09:41.188Z,50.29
2023-04-04T11:10:41.180Z,49.33
2023-04-04T11:11:41.168Z,48.73
2023-04-04T11:12:41.167Z,48.32
2023-04-04T11:13:41.152Z,48.94
2023-04-04T11:14:41.147Z,49.56
2023-04-04T11:15:41.394Z,48.94
2023-04-04T11:16:41.152Z,49.35
2023-04-04T11:17:41.136Z,48.83
2023-04-04T11:18:41.126Z,49.25
2023-04-04T11:19:41.101Z,50.51
2023-04-04T11:20:41.095Z,50.49
2023-04-04T11:21:41.117Z,50.18
2023-04-04T11:22:41.084Z,49.87
2023-04-04T11:23:41.084Z,50.68
2023-04-04T11:24:41.063Z,50.08
2023-04-04T11:25:41.212Z,50.60
2023-04-04T11:26:41.750Z,50.39
2023-04-04T11:27:41.066Z,49.98
2023-04-04T11:28:41.061Z,50.18
2023-04-04T11:29:41.036Z,50.60
2023-04-04T11:30:41.033Z,50.49
2023-04-04T11:31:41.079Z,50.16
2023-04-04T11:32:41.038Z,50.26
2023-04-04T11:33:40.997Z,49.95
2023-04-04T11:34:40.993Z,50.37
2023-04-04T11:35:41.389Z,50.05
2023-04-04T11:36:41.025Z,50.55
2023-04-04T11:37:40.966Z,49.41
2023-04-04T11:38:40.977Z,49.31
2023-04-04T11:39:41.848Z,49.70
2023-04-04T11:40:40.938Z,50.32
2023-04-04T11:41:40.933Z,49.80
2023-04-04T11:42:40.928Z,48.23
2023-04-04T11:43:41.878Z,49.08
2023-04-04T11:44:40.916Z,49.49
2023-04-04T11:45:41.131Z,50.11
2023-04-04T11:46:40.926Z,50.11
2023-04-04T11:47:40.903Z,49.29
2023-04-04T11:48:40.867Z,49.60
2023-04-04T11:49:40.915Z,50.01
2023-04-04T11:50:42.385Z,49.52
2023-04-04T11:51:40.848Z,49.10
2023-04-04T11:52:43.404Z,49.52
2023-04-04T11:53:41.825Z,48.48
2023-04-04T11:54:41.366Z,49.54
2023-04-04T11:55:41.052Z,50.16
2023-04-04T11:56:42.777Z,50.45
2023-04-04T11:57:40.851Z,49.22
2023-04-04T11:58:40.873Z,48.40
2023-04-04T11:59:40.875Z,49.35
2023-04-04T12:00:40.823Z,49.04
2023-04-04T12:01:40.775Z,49.58
2023-04-04T12:02:40.855Z,50.10
2023-04-04T12:03:40.885Z,48.24
2023-04-04T12:04:43.232Z,48.24
2023-04-04T12:05:41.171Z,48.83
2023-04-04T12:06:40.773Z,48.73
2023-04-04T12:07:41.375Z,49.15
2023-04-04T12:08:40.714Z,49.33
2023-04-04T12:09:40.727Z,50.03
2023-04-04T12:10:40.694Z,48.38
2023-04-04T12:11:40.680Z,49.00
2023-04-04T12:12:40.683Z,48.09
2023-04-04T12:13:40.698Z,48.40
2023-04-04T12:14:40.672Z,49.33
2023-04-04T12:15:41.718Z,48.50
2023-04-04T12:16:41.335Z,48.92
2023-04-04T12:17:40.647Z,48.63
2023-04-04T12:18:40.638Z,49.15
2023-04-04T12:19:40.630Z,49.13
2023-04-04T12:20:40.617Z,49.25
2023-04-04T12:21:40.614Z,49.33
2023-04-04T12:22:40.601Z,48.61
2023-04-04T12:23:40.606Z,48.43
2023-04-04T12:24:40.578Z,48.11
2023-04-04T12:25:40.847Z,48.22
2023-04-04T12:26:40.573Z,49.13
2023-04-04T12:27:40.589Z,48.58
2023-04-04T12:28:40.557Z,48.38
2023-04-04T12:29:40.534Z,48.90
2023-04-04T12:30:40.559Z,48.48
2023-04-04T12:31:40.559Z,48.38
2023-04-04T12:32:40.584Z,47.97
2023-04-04T12:33:40.513Z,48.48
2023-04-04T12:34:40.515Z,48.58
2023-04-04T12:35:40.683Z,48.63
2023-04-04T12:36:40.511Z,48.73
2023-04-04T12:37:40.477Z,48.63
2023-04-04T12:38:40.496Z,48.50
2023-04-04T12:39:40.472Z,49.02
2023-04-04T12:40:40.461Z,47.24
2023-04-04T12:41:40.477Z,47.86
2023-04-04T12:42:40.438Z,46.83
2023-04-04T12:43:40.443Z,47.32
2023-04-04T12:44:40.431Z,47.32
2023-04-04T12:45:41.024Z,47.74
2023-04-04T12:46:41.606Z,47.22
2023-04-04T12:47:40.428Z,48.25
2023-04-04T12:48:40.392Z,48.54
2023-04-04T12:49:40.396Z,49.05
2023-04-04T12:50:40.381Z,48.72
2023-04-04T12:51:40.371Z,47.69
2023-04-04T12:52:40.374Z,47.59
2023-04-04T12:53:41.353Z,47.28
2023-04-04T12:54:40.330Z,47.30
2023-04-04T12:55:40.838Z,48.44